createdAt,value
2017-02-20T04:00:38.769Z,72
2017-02-20T04:01:04.357Z,72.67
2017-02-20T04:01:29.985Z,72.23
2017-02-20T04:01:55.662Z,72.67
2017-02-20T04:02:21.220Z,72.8
2017-02-20T04:02:46.868Z,72.71
2017-02-20T04:03:12.449Z,72.19
2017-02-20T04:03:38.004Z,72.09
2017-02-20T04:04:03.559Z,72.77
2017-02-20T04:04:29.123Z,72.09
2017-02-20T04:04:54.672Z,72.77
2017-02-20T04:05:20.272Z,72.23
2017-02-20T04:05:45.832Z,72.77
2017-02-20T04:06:11.371Z,72.67
2017-02-20T04:06:36.937Z,72.58
2017-02-20T04:07:02.674Z,72.77
2017-02-20T04:07:28.221Z,72.77
2017-02-20T04:07:53.833Z,72.19
2017-02-20T04:08:19.391Z,72.77
2017-02-20T04:08:44.956Z,72.67
2017-02-20T04:09:10.541Z,72.77
2017-02-20T04:09:36.123Z,72.13
2017-02-20T04:10:01.695Z,72.8
2017-02-20T04:10:27.230Z,72.67
2017-02-20T04:10:52.802Z,72.61
2017-02-20T04:11:18.371Z,72.77
2017-02-20T04:11:44.013Z,72.8
2017-02-20T04:12:09.669Z,72.77
2017-02-20T04:12:35.221Z,72.67
2017-02-20T04:13:01.012Z,72.32
2017-02-20T04:13:26.573Z,72.61
2017-02-20T04:13:52.144Z,72.67
2017-02-20T04:14:17.707Z,72.19
2017-02-20T04:14:43.265Z,72.77
2017-02-20T04:15:08.833Z,72.61
2017-02-20T04:15:34.405Z,72.67
2017-02-20T04:15:59.955Z,72.9
2017-02-20T04:16:25.619Z,72.48
2017-02-20T04:16:51.195Z,72.52
2017-02-20T04:17:16.762Z,72.71
2017-02-20T04:17:42.329Z,72.71
2017-02-20T04:18:07.896Z,72.52
2017-02-20T04:18:33.463Z,72.71
2017-02-20T04:18:59.036Z,72.67
2017-02-20T04:19:24.630Z,72.48
2017-02-20T04:19:50.201Z,72.52
2017-02-20T04:20:15.783Z,72.67
2017-02-20T04:20:41.352Z,72.67
2017-02-20T04:21:07.053Z,72.48
2017-02-20T04:21:32.655Z,72.61
2017-02-20T04:21:58.217Z,72.58
2017-02-20T04:22:23.845Z,72.38
2017-02-20T04:22:49.412Z,72.71
2017-02-20T04:23:14.979Z,72.71
2017-02-20T04:23:40.544Z,72.48
2017-02-20T04:24:38.968Z,72.52
2017-02-20T04:25:04.554Z,72.67
2017-02-20T04:25:30.143Z,72.38
2017-02-20T04:25:55.685Z,72.58
2017-02-20T04:26:21.222Z,72.58
2017-02-20T04:26:46.764Z,72.67
2017-02-20T04:27:12.296Z,72.58
2017-02-20T04:27:37.855Z,72.42
2017-02-20T04:28:03.401Z,72.38
2017-02-20T04:28:28.932Z,72.48
2017-02-20T04:28:54.482Z,72.42
2017-02-20T04:29:20.211Z,72.42
2017-02-20T04:29:45.775Z,72.42
2017-02-20T04:30:11.366Z,72.42
2017-02-20T04:30:36.902Z,72.52
2017-02-20T04:31:02.612Z,72.52
2017-02-20T04:31:28.190Z,72.52
2017-02-20T04:31:53.751Z,72.29
2017-02-20T04:32:19.322Z,72.61
2017-02-20T04:32:44.882Z,72.48
2017-02-20T04:33:10.470Z,72.48
2017-02-20T04:33:36.066Z,72.48
2017-02-20T04:34:01.624Z,72.61
2017-02-20T04:34:27.185Z,72.77
2017-02-20T04:34:52.794Z,72.38
2017-02-20T04:35:18.344Z,72.48
2017-02-20T04:35:43.932Z,72.38
2017-02-20T04:36:09.506Z,72.8
2017-02-20T04:36:35.076Z,72.86
2017-02-20T04:37:00.649Z,72.86
2017-02-20T04:37:26.202Z,72.86
2017-02-20T04:37:51.743Z,72.8
2017-02-20T04:38:17.390Z,72.77
2017-02-20T04:38:43.056Z,72.67
2017-02-20T04:39:08.625Z,72.58
2017-02-20T04:39:34.215Z,72.71
2017-02-20T04:39:59.769Z,72.67
2017-02-20T04:40:25.339Z,72.67
2017-02-20T04:40:50.900Z,72.67
2017-02-20T04:41:16.465Z,72.86
2017-02-20T04:41:42.040Z,72.71
2017-02-20T04:42:07.633Z,72.77
2017-02-20T04:42:33.198Z,72.96
2017-02-20T04:42:58.764Z,73.05
2017-02-20T04:43:24.332Z,72.71
2017-02-20T04:43:49.903Z,73.19
2017-02-20T04:44:15.474Z,72.9
2017-02-20T04:44:41.066Z,72.96
2017-02-20T04:45:06.622Z,73.15
2017-02-20T04:45:32.195Z,72.96
2017-02-20T04:45:57.761Z,72.96
2017-02-20T04:46:23.311Z,72.9
2017-02-20T04:46:48.911Z,72.9
2017-02-20T04:47:14.472Z,72.86
2017-02-20T04:47:40.017Z,72.96
2017-02-20T04:48:05.577Z,72.99
2017-02-20T04:48:31.141Z,72.86
2017-02-20T04:48:56.705Z,72.9
2017-02-20T04:49:22.348Z,73.15
2017-02-20T04:49:47.904Z,73.15
2017-02-20T04:50:13.467Z,73.19
2017-02-20T04:50:39.131Z,72.8
2017-02-20T04:51:04.746Z,72.9
2017-02-20T04:51:30.304Z,72.8
2017-02-20T04:51:55.984Z,72.99
2017-02-20T04:52:21.568Z,72.8
2017-02-20T04:52:47.122Z,72.9
2017-02-20T04:53:12.689Z,72.58
2017-02-20T04:53:38.259Z,72.77
2017-02-20T04:54:03.825Z,72.9
2017-02-20T04:54:29.381Z,72.8
2017-02-20T04:54:54.944Z,72.9
2017-02-20T04:55:20.512Z,72.9
2017-02-20T04:55:46.145Z,72.77
2017-02-20T04:56:11.725Z,72.61
2017-02-20T04:56:37.273Z,72.71
2017-02-20T04:57:02.857Z,72.71
2017-02-20T04:57:28.430Z,73.05
2017-02-20T04:57:53.999Z,73.15
2017-02-20T04:58:19.566Z,72.71
2017-02-20T04:58:45.160Z,72.77
2017-02-20T04:59:10.729Z,72.77
2017-02-20T04:59:36.299Z,73.38
2017-02-20T05:00:01.862Z,73.44
2017-02-20T05:00:27.426Z,73.44
2017-02-20T05:00:53.022Z,73.47
2017-02-20T05:01:18.627Z,73.34
2017-02-20T05:01:44.205Z,73.09
2017-02-20T05:02:09.776Z,73.05
2017-02-20T05:02:35.488Z,73.38
2017-02-20T05:03:01.062Z,72.96
2017-02-20T05:03:26.634Z,73.34
2017-02-20T05:03:52.197Z,73.38
2017-02-20T05:04:17.862Z,73.47
2017-02-20T05:04:43.424Z,73.19
2017-02-20T05:05:09.101Z,73.15
2017-02-20T05:05:34.726Z,73.38
2017-02-20T05:06:00.289Z,73.38
2017-02-20T05:06:25.925Z,73.09
2017-02-20T05:06:51.488Z,73.05
2017-02-20T05:07:17.051Z,73.15
2017-02-20T05:07:42.603Z,73.15
2017-02-20T05:08:08.319Z,73.09
2017-02-20T05:08:33.915Z,73.09
2017-02-20T05:08:59.483Z,73.05
2017-02-20T05:09:25.046Z,73.05
2017-02-20T05:09:50.650Z,73.24
2017-02-20T05:10:16.224Z,73.15
2017-02-20T05:10:41.804Z,73.05
2017-02-20T05:11:07.382Z,73.15
2017-02-20T05:11:33.022Z,73.38
2017-02-20T05:11:58.581Z,73.15
2017-02-20T05:12:24.149Z,73.09
2017-02-20T05:12:49.706Z,73.38
2017-02-20T05:13:15.325Z,73.09
2017-02-20T05:13:40.897Z,73.38
2017-02-20T05:14:06.461Z,73.38
2017-02-20T05:14:32.067Z,73.05
2017-02-20T05:14:57.728Z,73.05
2017-02-20T05:15:23.285Z,73.19
2017-02-20T05:15:48.916Z,73.05
2017-02-20T05:16:14.467Z,73.09
2017-02-20T05:16:40.045Z,73.24
2017-02-20T05:17:05.594Z,73.05
2017-02-20T05:17:31.181Z,73.24
2017-02-20T05:17:56.926Z,73.19
2017-02-20T05:18:22.483Z,73.05
2017-02-20T05:18:48.053Z,73.24
2017-02-20T05:19:13.711Z,73.34
2017-02-20T05:19:39.279Z,72.99
2017-02-20T05:20:04.858Z,73.19
2017-02-20T05:20:30.470Z,73.09
2017-02-20T05:20:56.035Z,73.19
2017-02-20T05:21:21.616Z,73.24
2017-02-20T05:21:47.297Z,73.05
2017-02-20T05:22:12.904Z,73.05
2017-02-20T05:22:38.467Z,73.15
2017-02-20T05:23:04.159Z,73.05
2017-02-20T05:23:29.736Z,73.15
2017-02-20T05:23:55.301Z,73.28
2017-02-20T05:24:20.869Z,73.28
2017-02-20T05:24:46.552Z,73.05
2017-02-20T05:25:12.116Z,73.19
2017-02-20T05:25:37.720Z,73.24
2017-02-20T05:26:03.265Z,73.24
2017-02-20T05:26:28.826Z,73.28
2017-02-20T05:26:54.409Z,73.05
2017-02-20T05:27:19.977Z,73.24
2017-02-20T05:27:45.515Z,73.54
2017-02-20T05:28:11.078Z,73.57
2017-02-20T05:28:36.762Z,73.44
2017-02-20T05:29:02.473Z,73.28
2017-02-20T05:29:55.836Z,73.54
2017-02-20T05:30:21.394Z,73.34
2017-02-20T05:30:46.951Z,73.54
2017-02-20T05:31:12.504Z,73.57
2017-02-20T05:31:38.108Z,73.63
2017-02-20T05:32:03.689Z,73.28
2017-02-20T05:32:29.243Z,73.38
2017-02-20T05:32:54.796Z,73.54
2017-02-20T05:33:20.474Z,73.47
2017-02-20T05:33:46.034Z,73.57
2017-02-20T05:34:11.606Z,73.54
2017-02-20T05:34:37.165Z,73.63
2017-02-20T05:35:02.723Z,73.57
2017-02-20T05:35:28.253Z,73.54
2017-02-20T05:35:53.826Z,73.95
2017-02-20T05:36:19.377Z,73.63
2017-02-20T05:36:44.923Z,73.72
2017-02-20T05:37:10.462Z,73.72
2017-02-20T05:37:36.118Z,73.54
2017-02-20T05:38:01.673Z,73.76
2017-02-20T05:38:27.217Z,73.72
2017-02-20T05:38:52.782Z,73.91
2017-02-20T05:39:18.328Z,73.72
2017-02-20T05:39:43.978Z,73.86
2017-02-20T05:40:09.556Z,73.95
2017-02-20T05:40:35.241Z,73.91
2017-02-20T05:41:00.865Z,73.76
2017-02-20T05:41:26.453Z,73.95
2017-02-20T05:41:52.004Z,73.57
2017-02-20T05:42:17.604Z,73.63
2017-02-20T05:42:43.174Z,73.57
2017-02-20T05:43:08.744Z,73.76
2017-02-20T05:43:34.425Z,73.66
2017-02-20T05:44:00.006Z,73.76
2017-02-20T05:44:25.584Z,73.66
2017-02-20T05:44:51.263Z,73.72
2017-02-20T05:45:16.883Z,73.63
2017-02-20T05:45:42.473Z,73.54
2017-02-20T05:46:08.070Z,73.57
2017-02-20T05:46:33.650Z,73.66
2017-02-20T05:46:59.239Z,73.72
2017-02-20T05:47:24.792Z,73.63
2017-02-20T05:47:50.474Z,73.95
2017-02-20T05:48:16.046Z,73.66
2017-02-20T05:48:41.604Z,73.57
2017-02-20T05:49:07.155Z,73.82
2017-02-20T05:49:32.714Z,73.86
2017-02-20T05:49:58.282Z,73.76
2017-02-20T05:50:23.844Z,73.72
2017-02-20T05:50:49.420Z,73.95
2017-02-20T05:51:15.038Z,74.01
2017-02-20T05:51:40.662Z,73.95
2017-02-20T05:52:06.213Z,73.91
2017-02-20T05:52:31.767Z,73.95
2017-02-20T05:52:57.372Z,73.76
2017-02-20T05:53:22.903Z,73.86
2017-02-20T05:53:48.463Z,73.82
2017-02-20T05:54:14.005Z,73.91
2017-02-20T05:54:39.564Z,73.76
2017-02-20T05:55:05.173Z,73.72
2017-02-20T05:55:30.751Z,73.72
2017-02-20T05:55:56.305Z,73.72
2017-02-20T05:56:21.869Z,73.82
2017-02-20T05:56:47.453Z,73.82
2017-02-20T05:57:13.058Z,73.95
2017-02-20T05:57:38.634Z,73.86
2017-02-20T05:58:04.210Z,73.76
2017-02-20T05:58:29.833Z,73.82
2017-02-20T05:58:55.421Z,73.76
2017-02-20T05:59:21.016Z,73.86
2017-02-20T05:59:46.579Z,73.72
2017-02-20T06:00:12.275Z,73.63
2017-02-20T06:00:37.833Z,73.86
2017-02-20T06:01:03.412Z,73.76
2017-02-20T06:01:28.985Z,73.86
2017-02-20T06:01:54.647Z,73.91
2017-02-20T06:02:20.200Z,73.82
2017-02-20T06:02:45.763Z,73.82
2017-02-20T06:03:11.422Z,73.82
2017-02-20T06:03:36.988Z,73.72
2017-02-20T06:04:02.553Z,73.66
2017-02-20T06:04:28.120Z,73.76
2017-02-20T06:04:53.759Z,73.76
2017-02-20T06:05:19.312Z,73.72
2017-02-20T06:05:44.977Z,73.91
2017-02-20T06:06:10.563Z,73.82
2017-02-20T06:06:36.124Z,74.2
2017-02-20T06:07:44.697Z,74.4
2017-02-20T06:08:10.263Z,74.33
2017-02-20T06:08:35.862Z,74.01
2017-02-20T06:09:01.493Z,74.05
2017-02-20T06:09:27.061Z,74.05
2017-02-20T06:09:52.624Z,74.11
2017-02-20T06:10:18.334Z,74.3
2017-02-20T06:10:43.908Z,74.2
2017-02-20T06:11:09.462Z,74.24
2017-02-20T06:11:35.031Z,74.68
2017-02-20T06:12:00.606Z,74.58
2017-02-20T06:12:26.176Z,74.77
2017-02-20T06:12:51.742Z,74.2
2017-02-20T06:13:17.300Z,74.77
2017-02-20T06:13:42.893Z,74.72
2017-02-20T06:14:08.526Z,74.33
2017-02-20T06:14:34.094Z,74.68
2017-02-20T06:14:59.673Z,74.58
2017-02-20T06:15:25.279Z,74.72
2017-02-20T06:15:50.869Z,74.77
2017-02-20T06:16:16.443Z,74.72
2017-02-20T06:16:42.119Z,74.58
2017-02-20T06:17:07.703Z,74.49
2017-02-20T06:17:33.285Z,74.49
2017-02-20T06:17:58.854Z,74.72
2017-02-20T06:18:24.511Z,74.62
2017-02-20T06:18:50.094Z,74.68
2017-02-20T06:19:15.654Z,74.91
2017-02-20T06:19:41.227Z,74.77
2017-02-20T06:20:06.802Z,74.97
2017-02-20T06:20:32.373Z,74.82
2017-02-20T06:20:57.915Z,75.16
2017-02-20T06:21:23.485Z,74.97
2017-02-20T06:21:49.031Z,75.2
2017-02-20T06:22:14.637Z,74.91
2017-02-20T06:22:40.207Z,75.1
2017-02-20T06:23:05.759Z,74.91
2017-02-20T06:23:31.334Z,75.16
2017-02-20T06:23:56.905Z,75.1
2017-02-20T06:24:22.476Z,75.1
2017-02-20T06:24:48.055Z,75.16
2017-02-20T06:25:13.622Z,75.1
2017-02-20T06:25:39.184Z,75.01
2017-02-20T06:26:04.870Z,75.1
2017-02-20T06:26:30.446Z,74.97
2017-02-20T06:26:56.096Z,75.07
2017-02-20T06:27:21.746Z,75.16
2017-02-20T06:27:47.317Z,74.82
2017-02-20T06:28:12.892Z,75.01
2017-02-20T06:28:38.526Z,74.97
2017-02-20T06:29:04.093Z,75.1
2017-02-20T06:29:29.644Z,74.68
2017-02-20T06:29:55.202Z,74.91
2017-02-20T06:30:20.884Z,74.87
2017-02-20T06:30:46.457Z,74.82
2017-02-20T06:31:12.102Z,74.82
2017-02-20T06:31:37.686Z,75.1
2017-02-20T06:32:03.246Z,74.97
2017-02-20T06:32:28.804Z,74.72
2017-02-20T06:32:54.475Z,74.68
2017-02-20T06:33:20.051Z,74.97
2017-02-20T06:33:45.615Z,74.87
2017-02-20T06:34:11.185Z,75.07
2017-02-20T06:34:36.757Z,75.16
2017-02-20T06:35:02.326Z,74.91
2017-02-20T06:35:27.906Z,74.77
2017-02-20T06:35:53.481Z,74.91
2017-02-20T06:36:19.033Z,74.77
2017-02-20T06:36:44.641Z,74.87
2017-02-20T06:37:10.204Z,74.87
2017-02-20T06:37:35.782Z,74.91
2017-02-20T06:38:01.328Z,75.01
2017-02-20T06:38:27.025Z,75.07
2017-02-20T06:38:52.582Z,75.07
2017-02-20T06:39:18.224Z,74.82
2017-02-20T06:39:43.877Z,75.2
2017-02-20T06:40:09.454Z,74.68
2017-02-20T06:40:35.120Z,75.01
2017-02-20T06:41:00.687Z,74.72
2017-02-20T06:41:26.264Z,74.72
2017-02-20T06:41:51.926Z,74.15
2017-02-20T06:42:17.539Z,74.58
2017-02-20T06:42:43.100Z,74.52
2017-02-20T06:43:08.686Z,74.49
2017-02-20T06:43:34.248Z,74.68
2017-02-20T06:43:59.828Z,74.82
2017-02-20T06:44:25.375Z,74.62
2017-02-20T06:44:50.934Z,74.62
2017-02-20T06:45:16.515Z,74.58
2017-02-20T06:45:42.081Z,74.62
2017-02-20T06:46:07.684Z,74.24
2017-02-20T06:46:33.246Z,74.24
2017-02-20T06:46:58.797Z,74.2
2017-02-20T06:47:24.437Z,74.15
2017-02-20T06:47:50.021Z,74.15
2017-02-20T06:48:15.656Z,74.15
2017-02-20T06:48:41.291Z,74.2
2017-02-20T06:49:06.865Z,74.11
2017-02-20T06:49:32.432Z,74.05
2017-02-20T06:49:58.115Z,74.11
2017-02-20T06:50:23.673Z,74.15
2017-02-20T06:50:49.230Z,74.05
2017-02-20T06:51:14.789Z,74.3
2017-02-20T06:51:40.513Z,74.43
2017-02-20T06:52:06.046Z,74.43
2017-02-20T06:52:31.601Z,74.05
2017-02-20T06:52:57.286Z,74.24
2017-02-20T06:53:22.838Z,74.2
2017-02-20T06:53:48.403Z,74.24
2017-02-20T06:54:13.980Z,74.33
2017-02-20T06:54:39.556Z,74.05
2017-02-20T06:55:05.124Z,74.11
2017-02-20T06:55:30.675Z,74.4
2017-02-20T06:55:56.275Z,74.82
2017-02-20T06:56:21.926Z,74.43
2017-02-20T06:56:47.512Z,74.62
2017-02-20T06:57:13.086Z,74.82
2017-02-20T06:57:38.644Z,74.91
2017-02-20T06:58:04.314Z,74.82
2017-02-20T06:58:29.884Z,75.07
2017-02-20T06:58:55.453Z,75.2
2017-02-20T06:59:21.025Z,75.01
2017-02-20T06:59:46.677Z,74.72
2017-02-20T07:00:12.250Z,75.07
2017-02-20T07:01:15.756Z,75.29
2017-02-20T07:01:41.342Z,75.58
2017-02-20T07:02:07.019Z,75.39
2017-02-20T07:02:32.533Z,75.39
2017-02-20T07:02:58.108Z,75.64
2017-02-20T07:03:23.672Z,75.58
2017-02-20T07:03:49.287Z,75.64
2017-02-20T07:04:14.870Z,75.48
2017-02-20T07:04:40.431Z,75.64
2017-02-20T07:05:05.987Z,75.64
2017-02-20T07:05:31.515Z,75.68
2017-02-20T07:05:57.071Z,75.93
2017-02-20T07:06:22.631Z,76.15
2017-02-20T07:06:48.171Z,75.45
2017-02-20T07:07:13.730Z,75.87
2017-02-20T07:07:39.306Z,75.87
2017-02-20T07:08:04.881Z,76.06
2017-02-20T07:08:30.443Z,75.68
2017-02-20T07:08:56.045Z,75.87
2017-02-20T07:09:21.601Z,75.96
2017-02-20T07:09:47.149Z,76.06
2017-02-20T07:10:12.708Z,75.87
2017-02-20T07:10:38.272Z,75.68
2017-02-20T07:11:03.846Z,76.06
2017-02-20T07:11:29.420Z,75.77
2017-02-20T07:11:54.979Z,76.06
2017-02-20T07:12:20.619Z,76.06
2017-02-20T07:12:46.185Z,76.06
2017-02-20T07:13:11.734Z,75.87
2017-02-20T07:13:37.292Z,75.96
2017-02-20T07:14:02.894Z,75.68
2017-02-20T07:14:28.465Z,76.06
2017-02-20T07:14:54.105Z,75.58
2017-02-20T07:15:19.683Z,75.77
2017-02-20T07:15:45.263Z,75.87
2017-02-20T07:16:10.826Z,75.68
2017-02-20T07:16:36.393Z,75.77
2017-02-20T07:17:01.951Z,75.68
2017-02-20T07:17:27.586Z,75.77
2017-02-20T07:17:53.143Z,75.87
2017-02-20T07:18:18.723Z,75.87
2017-02-20T07:18:44.277Z,76.15
2017-02-20T07:19:09.843Z,75.96
2017-02-20T07:19:35.427Z,76.15
2017-02-20T07:20:00.985Z,76.15
2017-02-20T07:20:26.529Z,75.87
2017-02-20T07:20:52.130Z,75.87
2017-02-20T07:21:17.705Z,75.77
2017-02-20T07:21:43.289Z,76.06
2017-02-20T07:22:08.849Z,75.77
2017-02-20T07:22:34.444Z,75.96
2017-02-20T07:23:00.018Z,75.77
2017-02-20T07:23:25.594Z,75.96
2017-02-20T07:23:51.201Z,75.48
2017-02-20T07:24:16.796Z,76.06
2017-02-20T07:24:42.360Z,76.15
2017-02-20T07:25:07.932Z,76.15
2017-02-20T07:25:33.494Z,75.77
2017-02-20T07:25:59.092Z,75.96
2017-02-20T07:26:24.699Z,75.58
2017-02-20T07:26:50.259Z,75.58
2017-02-20T07:27:15.931Z,75.58
2017-02-20T07:27:41.503Z,75.58
2017-02-20T07:28:07.056Z,75.58
2017-02-20T07:28:32.614Z,75.39
2017-02-20T07:28:58.182Z,75.68
2017-02-20T07:29:23.765Z,75.48
2017-02-20T07:29:49.322Z,75.68
2017-02-20T07:30:14.905Z,75.39
2017-02-20T07:30:40.451Z,75.58
2017-02-20T07:31:06.030Z,75.77
2017-02-20T07:31:31.715Z,75.39
2017-02-20T07:31:57.294Z,75.48
2017-02-20T07:32:22.841Z,75.48
2017-02-20T07:32:48.390Z,75.1
2017-02-20T07:33:13.941Z,74.82
2017-02-20T07:33:39.494Z,74.91
2017-02-20T07:34:05.067Z,75.1
2017-02-20T07:34:30.644Z,75.1
2017-02-20T07:34:56.222Z,75.1
2017-02-20T07:35:21.873Z,74.91
2017-02-20T07:35:47.463Z,74.72
2017-02-20T07:36:13.036Z,74.24
2017-02-20T07:36:38.679Z,74.62
2017-02-20T07:37:04.236Z,74.72
2017-02-20T07:37:29.945Z,74.72
2017-02-20T07:37:55.520Z,74.62
2017-02-20T07:38:21.089Z,74.72
2017-02-20T07:38:46.694Z,74.72
2017-02-20T07:39:12.289Z,74.33
2017-02-20T07:39:37.880Z,74.24
2017-02-20T07:40:03.455Z,74.15
2017-02-20T07:40:29.060Z,74.15
2017-02-20T07:40:54.694Z,73.95
2017-02-20T07:41:20.245Z,74.24
2017-02-20T07:41:45.907Z,74.05
2017-02-20T07:42:11.505Z,74.05
2017-02-20T07:42:37.070Z,74.05
2017-02-20T07:43:02.636Z,74.24
2017-02-20T07:43:28.291Z,74.33
2017-02-20T07:43:53.855Z,74.24
2017-02-20T07:44:19.424Z,74.43
2017-02-20T07:44:45.001Z,74.24
2017-02-20T07:45:10.683Z,74.33
2017-02-20T07:45:36.233Z,74.24
2017-02-20T07:46:01.790Z,74.33
2017-02-20T07:46:27.471Z,74.05
2017-02-20T07:46:53.048Z,74.24
2017-02-20T07:47:18.600Z,74.33
2017-02-20T07:47:44.231Z,74.43
2017-02-20T07:48:09.865Z,74.43
2017-02-20T07:48:35.421Z,74.33
2017-02-20T07:49:01.122Z,74.43
2017-02-20T07:49:26.712Z,74.24
2017-02-20T07:49:52.263Z,74.33
2017-02-20T07:50:17.953Z,74.43
2017-02-20T07:50:43.538Z,74.33
2017-02-20T07:51:09.105Z,74.05
2017-02-20T07:51:34.694Z,74.15
2017-02-20T07:52:00.329Z,74.43
2017-02-20T07:52:25.903Z,74.33
2017-02-20T07:52:51.463Z,74.33
2017-02-20T07:53:17.080Z,74.43
2017-02-20T07:53:42.699Z,74.24
2017-02-20T07:54:08.274Z,74.05
2017-02-20T07:54:33.861Z,74.05
2017-02-20T07:54:59.500Z,74.05
2017-02-20T07:55:25.065Z,74.33
2017-02-20T07:55:50.635Z,74.24
2017-02-20T07:56:16.353Z,74.15
2017-02-20T07:56:41.920Z,74.24
2017-02-20T07:57:07.490Z,73.95
2017-02-20T07:57:33.140Z,74.05
2017-02-20T07:57:58.701Z,74.15
2017-02-20T07:58:24.281Z,74.15
2017-02-20T07:58:49.938Z,74.43
2017-02-20T07:59:15.606Z,73.95
2017-02-20T07:59:41.165Z,74.24
2017-02-20T08:00:06.725Z,74.15
2017-02-20T08:00:32.292Z,74.05
2017-02-20T08:00:57.871Z,74.05
2017-02-20T08:01:23.436Z,74.15
2017-02-20T08:01:49.044Z,74.24
2017-02-20T08:02:14.732Z,74.62
2017-02-20T08:02:40.300Z,74.24
2017-02-20T08:03:05.868Z,74.24
2017-02-20T08:03:31.436Z,74.24
2017-02-20T08:03:56.998Z,74.15
2017-02-20T08:04:22.576Z,74.24
2017-02-20T08:04:48.153Z,74.24
2017-02-20T08:05:13.715Z,74.33
2017-02-20T08:05:39.698Z,74.15
2017-02-20T08:06:04.895Z,74.52
2017-02-20T08:06:30.447Z,74.62
2017-02-20T08:06:56.113Z,74.72
2017-02-20T08:07:21.684Z,74.72
2017-02-20T08:07:47.238Z,74.33
2017-02-20T08:08:12.825Z,74.82
2017-02-20T08:08:38.526Z,74.82
2017-02-20T08:09:04.092Z,74.24
2017-02-20T08:09:29.665Z,74.62
2017-02-20T08:09:55.226Z,74.52
2017-02-20T08:10:20.928Z,74.62
2017-02-20T08:10:46.694Z,74.43
2017-02-20T08:11:12.241Z,74.62
2017-02-20T08:11:37.831Z,74.72
2017-02-20T08:12:03.403Z,74.72
2017-02-20T08:12:28.984Z,74.52
2017-02-20T08:12:54.572Z,74.62
2017-02-20T08:13:20.164Z,74.43
2017-02-20T08:13:45.727Z,74.62
2017-02-20T08:14:11.291Z,74.62
2017-02-20T08:14:36.907Z,74.52
2017-02-20T08:15:02.502Z,74.52
2017-02-20T08:15:28.132Z,74.72
2017-02-20T08:15:53.722Z,74.52
2017-02-20T08:16:19.270Z,74.62
2017-02-20T08:16:44.945Z,74.62
2017-02-20T08:17:10.580Z,74.72
2017-02-20T08:17:36.130Z,74.52
2017-02-20T08:18:01.718Z,74.72
2017-02-20T08:18:27.374Z,74.52
2017-02-20T08:18:52.945Z,74.72
2017-02-20T08:19:18.536Z,74.72
2017-02-20T08:19:44.192Z,74.62
2017-02-20T08:20:09.771Z,74.72
2017-02-20T08:20:35.330Z,74.62
2017-02-20T08:21:00.894Z,74.62
2017-02-20T08:21:26.613Z,74.72
2017-02-20T08:21:52.213Z,74.62
2017-02-20T08:22:17.784Z,74.52
2017-02-20T08:22:43.355Z,74.72
2017-02-20T08:23:09.001Z,74.62
2017-02-20T08:23:34.558Z,74.52
2017-02-20T08:24:00.126Z,74.72
2017-02-20T08:24:25.773Z,74.52
2017-02-20T08:24:51.323Z,74.52
2017-02-20T08:25:16.892Z,74.43
2017-02-20T08:25:42.481Z,74.72
2017-02-20T08:26:08.038Z,74.52
2017-02-20T08:26:33.625Z,74.52
2017-02-20T08:26:59.172Z,74.62
2017-02-20T08:27:24.795Z,74.52
2017-02-20T08:27:50.358Z,74.62
2017-02-20T08:28:15.947Z,74.52
2017-02-20T08:28:41.524Z,74.62
2017-02-20T08:29:07.110Z,74.43
2017-02-20T08:29:32.751Z,74.52
2017-02-20T08:29:58.315Z,74.62
2017-02-20T08:30:23.883Z,74.52
2017-02-20T08:30:49.584Z,74.52
2017-02-20T08:31:15.161Z,74.43
2017-02-20T08:31:40.704Z,74.43
2017-02-20T08:32:06.281Z,74.72
2017-02-20T08:32:31.862Z,74.52
2017-02-20T08:32:57.418Z,74.72
2017-02-20T08:33:23.006Z,74.52
2017-02-20T08:33:48.761Z,74.62
2017-02-20T08:34:14.327Z,74.43
2017-02-20T08:34:39.963Z,74.72
2017-02-20T08:35:05.526Z,74.52
2017-02-20T08:35:31.132Z,74.52
2017-02-20T08:35:56.702Z,74.72
2017-02-20T08:37:05.441Z,74.52
2017-02-20T08:37:31.017Z,74.62
2017-02-20T08:37:56.799Z,74.62
2017-02-20T08:38:22.368Z,74.72
2017-02-20T08:38:47.943Z,74.62
2017-02-20T08:39:13.513Z,74.62
2017-02-20T08:39:39.079Z,74.52
2017-02-20T08:40:04.635Z,74.52
2017-02-20T08:40:30.182Z,74.43
2017-02-20T08:40:55.756Z,74.72
2017-02-20T08:41:21.315Z,74.62
2017-02-20T08:41:46.862Z,74.62
2017-02-20T08:42:12.483Z,74.43
2017-02-20T08:42:38.040Z,74.43
2017-02-20T08:43:03.591Z,74.52
2017-02-20T08:43:29.144Z,74.62
2017-02-20T08:43:54.721Z,74.52
2017-02-20T08:44:20.294Z,74.62
2017-02-20T08:44:45.913Z,74.33
2017-02-20T08:45:11.481Z,74.62
2017-02-20T08:45:37.051Z,74.52
2017-02-20T08:46:02.693Z,74.62
2017-02-20T08:46:28.244Z,74.72
2017-02-20T08:46:53.948Z,74.43
2017-02-20T08:47:19.531Z,74.82
2017-02-20T08:47:45.088Z,74.72
2017-02-20T08:48:10.643Z,74.72
2017-02-20T08:48:36.313Z,74.62
2017-02-20T08:49:01.870Z,74.72
2017-02-20T08:49:27.412Z,74.52
2017-02-20T08:49:52.944Z,74.62
2017-02-20T08:50:18.540Z,74.62
2017-02-20T08:50:44.100Z,74.62
2017-02-20T08:51:09.650Z,74.82
2017-02-20T08:51:35.212Z,74.15
2017-02-20T08:52:00.746Z,74.72
2017-02-20T08:52:26.315Z,74.72
2017-02-20T08:52:51.857Z,74.72
2017-02-20T08:53:17.442Z,74.62
2017-02-20T08:53:43.007Z,74.72
2017-02-20T08:54:08.561Z,74.82
2017-02-20T08:54:34.126Z,74.15
2017-02-20T08:54:59.689Z,74.15
2017-02-20T08:55:25.253Z,74.43
2017-02-20T08:55:50.844Z,74.24
2017-02-20T08:56:16.402Z,74.62
2017-02-20T08:56:41.969Z,74.82
2017-02-20T08:57:07.598Z,74.82
2017-02-20T08:57:33.171Z,74.82
2017-02-20T08:57:58.726Z,74.82
2017-02-20T08:58:24.403Z,74.72
2017-02-20T08:58:49.960Z,74.33
2017-02-20T09:00:46.394Z,74.62
2017-02-20T09:01:11.983Z,74.72
2017-02-20T09:01:37.555Z,74.72
2017-02-20T09:02:03.118Z,74.82
2017-02-20T09:02:28.693Z,74.52
2017-02-20T09:02:54.260Z,74.82
2017-02-20T09:03:19.872Z,74.82
2017-02-20T09:03:45.454Z,74.82
2017-02-20T09:04:11.021Z,74.82
2017-02-20T09:04:36.590Z,74.52
2017-02-20T09:05:02.266Z,74.82
2017-02-20T09:05:27.814Z,74.24
2017-02-20T09:05:53.366Z,74.62
2017-02-20T09:06:18.925Z,74.33
2017-02-20T09:06:44.464Z,74.62
2017-02-20T09:07:10.032Z,74.15
2017-02-20T09:07:35.704Z,74.24
2017-02-20T09:08:01.275Z,74.43
2017-02-20T09:08:26.863Z,74.24
2017-02-20T09:08:52.455Z,74.15
2017-02-20T09:09:18.347Z,74.15
2017-02-20T09:09:43.937Z,74.24
2017-02-20T09:10:09.473Z,74.33
2017-02-20T09:10:35.051Z,74.33
2017-02-20T09:11:00.634Z,74.24
2017-02-20T09:11:26.201Z,74.24
2017-02-20T09:11:51.775Z,74.24
2017-02-20T09:12:17.416Z,74.15
2017-02-20T09:12:42.964Z,74.24
2017-02-20T09:13:08.538Z,74.24
2017-02-20T09:13:34.116Z,74.15
2017-02-20T09:13:59.673Z,74.24
2017-02-20T09:14:25.333Z,74.15
2017-02-20T09:14:50.923Z,74.24
2017-02-20T09:15:16.482Z,74.15
2017-02-20T09:15:42.042Z,74.24
2017-02-20T09:16:07.650Z,74.15
2017-02-20T09:16:33.212Z,74.05
2017-02-20T09:16:58.757Z,74.15
2017-02-20T09:17:24.446Z,74.43
2017-02-20T09:17:50.014Z,74.05
2017-02-20T09:18:15.577Z,74.05
2017-02-20T09:18:41.142Z,74.24
2017-02-20T09:19:06.721Z,74.15
2017-02-20T09:19:32.295Z,74.05
2017-02-20T09:19:57.841Z,74.15
2017-02-20T09:20:23.403Z,73.95
2017-02-20T09:20:48.951Z,74.15
2017-02-20T09:21:14.615Z,74.05
2017-02-20T09:21:40.175Z,74.24
2017-02-20T09:22:05.723Z,74.05
2017-02-20T09:22:31.272Z,74.15
2017-02-20T09:22:56.827Z,74.15
2017-02-20T09:23:22.427Z,74.05
2017-02-20T09:23:48.041Z,74.15
2017-02-20T09:24:13.595Z,74.05
2017-02-20T09:24:39.206Z,74.05
2017-02-20T09:25:04.803Z,74.05
2017-02-20T09:25:30.387Z,74.15
2017-02-20T09:25:56.042Z,74.05
2017-02-20T09:26:21.661Z,74.15
2017-02-20T09:26:47.227Z,74.24
2017-02-20T09:27:12.808Z,74.05
2017-02-20T09:27:38.472Z,74.24
2017-02-20T09:28:04.058Z,74.33
2017-02-20T09:28:29.615Z,74.24
2017-02-20T09:28:55.230Z,74.24
2017-02-20T09:29:20.884Z,74.24
2017-02-20T09:29:46.461Z,74.24
2017-02-20T09:30:12.038Z,74.24
2017-02-20T09:31:05.367Z,74.33
2017-02-20T09:31:31.066Z,74.33
2017-02-20T09:31:56.720Z,74.24
2017-02-20T09:32:22.306Z,74.33
2017-02-20T09:32:47.922Z,74.33
2017-02-20T09:33:13.520Z,74.33
2017-02-20T09:33:39.093Z,74.52
2017-02-20T09:34:04.714Z,74.15
2017-02-20T09:34:30.297Z,74.33
2017-02-20T09:34:55.916Z,74.43
2017-02-20T09:35:21.468Z,74.15
2017-02-20T09:35:47.023Z,74.24